Time;durP1;ratioP1;P1;durP2;ratioP2;P2;SDS_P1;SDS_P2;PMS_P1;PMS_P2;Temp;Humidity;BMP_temperature;BMP_pressure;BME280_temperature;BME280_humidity;BME280_pressure;Samples;Min_cycle;Max_cycle;Signal;HPM_P1;HPM_P2
2024/01/10 00:02:00;;;;;;;5.20;2.80;;;-2.20;87.40;;;;;;5041554;28;20051;-82
2024/01/10 00:04:26;;;;;;;5.15;2.90;;;-2.30;87.50;;;;;;5074839;28;20373;-82
2024/01/10 00:06:51;;;;;;;5.88;2.72;;;-2.30;87.70;;;;;;5075766;28;20029;-82
2024/01/10 00:09:17;;;;;;;5.88;3.00;;;-2.30;88.00;;;;;;5076083;28;20027;-82
2024/01/10 00:11:44;;;;;;;6.38;3.00;;;-2.30;88.80;;;;;;5075077;28;20116;-82
2024/01/10 00:14:10;;;;;;;4.68;2.50;;;-2.30;88.50;;;;;;5076046;28;20070;-82
2024/01/10 00:16:36;;;;;;;5.05;2.90;;;-2.30;88.60;;;;;;5076618;28;20020;-81
2024/01/10 00:19:01;;;;;;;6.97;3.13;;;-2.30;88.90;;;;;;5076942;28;20050;-82
2024/01/10 00:21:27;;;;;;;5.05;3.05;;;-2.30;89.00;;;;;;5079708;28;20460;-81
2024/01/10 00:23:57;;;;;;;5.70;3.10;;;-2.30;89.20;;;;;;5077563;28;20456;-83
2024/01/10 00:26:26;;;;;;;5.90;2.90;;;-2.30;89.50;;;;;;5098025;28;20408;-80
2024/01/10 00:28:52;;;;;;;5.90;3.37;;;-2.30;89.80;;;;;;5078466;28;20024;-82
2024/01/10 00:31:17;;;;;;;6.00;3.17;;;-2.40;90.00;;;;;;5064136;28;20029;-81
2024/01/10 00:33:43;;;;;;;5.60;3.20;;;-2.40;90.10;;;;;;5074913;28;20031;-81
2024/01/10 00:36:09;;;;;;;6.35;2.90;;;-2.50;90.20;;;;;;5057700;28;20064;-81
2024/01/10 00:38:34;;;;;;;5.07;3.33;;;-2.40;90.20;;;;;;5073759;28;20107;-81
2024/01/10 00:41:00;;;;;;;5.70;2.75;;;-2.50;90.30;;;;;;5057490;28;20021;-81
2024/01/10 00:43:25;;;;;;;5.55;2.92;;;-2.40;90.40;;;;;;5075104;28;20130;-81
2024/01/10 00:45:51;;;;;;;4.80;2.80;;;-2.40;90.40;;;;;;5074257;28;20041;-82
2024/01/10 00:48:19;;;;;;;6.80;3.43;;;-2.50;90.40;;;;;;5073739;28;20052;-82
2024/01/10 00:50:45;;;;;;;6.25;3.17;;;-2.50;90.60;;;;;;5057564;28;20025;-82
2024/01/10 00:53:11;;;;;;;6.50;3.13;;;-2.50;90.70;;;;;;5057278;28;20031;-82
2024/01/10 00:55:37;;;;;;;6.03;3.30;;;-2.50;90.70;;;;;;5057271;28;20487;-82
2024/01/10 00:58:02;;;;;;;7.38;3.88;;;-2.50;90.70;;;;;;5073787;28;20028;-82
2024/01/10 01:00:28;;;;;;;7.47;3.28;;;-2.40;90.70;;;;;;5056951;28;20032;-82
2024/01/10 01:02:54;;;;;;;5.43;3.10;;;-2.40;90.70;;;;;;5057079;28;20028;-82
2024/01/10 01:05:19;;;;;;;7.80;3.17;;;-2.50;90.70;;;;;;5057050;28;20484;-82
2024/01/10 01:07:45;;;;;;;6.13;2.90;;;-2.50;90.70;;;;;;5056484;28;20025;-82
2024/01/10 01:10:11;;;;;;;6.53;3.30;;;-2.50;90.80;;;;;;5057015;28;20021;-82
2024/01/10 01:12:37;;;;;;;5.85;3.20;;;-2.50;90.80;;;;;;5056533;28;20383;-82
2024/01/10 01:15:03;;;;;;;5.05;3.03;;;-2.50;90.80;;;;;;5073264;28;20035;-82
2024/01/10 01:17:31;;;;;;;5.20;3.00;;;-2.50;90.90;;;;;;5057090;28;20394;-81
2024/01/10 01:19:58;;;;;;;6.18;3.30;;;-2.50;90.90;;;;;;5074610;28;20017;-81
2024/01/10 01:22:23;;;;;;;7.10;3.25;;;-2.50;91.00;;;;;;5040301;28;20388;-81
2024/01/10 01:24:49;;;;;;;5.37;3.27;;;-2.60;91.10;;;;;;5040582;28;20036;-81
2024/01/10 01:27:15;;;;;;;5.77;3.53;;;-2.60;91.10;;;;;;5058247;28;20028;-81
2024/01/10 01:29:41;;;;;;;5.20;3.30;;;-2.50;91.20;;;;;;5078027;28;20480;-82
2024/01/10 01:32:06;;;;;;;4.93;3.20;;;-2.60;91.40;;;;;;5083762;28;20485;-81
2024/01/10 01:34:32;;;;;;;5.75;3.05;;;-2.50;91.20;;;;;;5093351;28;20029;-81
2024/01/10 01:36:57;;;;;;;5.13;2.93;;;-2.50;91.20;;;;;;5097365;28;20032;-79
2024/01/10 01:39:26;;;;;;;6.20;3.47;;;-2.50;91.30;;;;;;5069412;28;20056;-81
2024/01/10 01:41:52;;;;;;;6.95;3.42;;;-2.60;91.30;;;;;;5057034;28;20059;-81
2024/01/10 01:44:18;;;;;;;6.73;3.20;;;-2.60;91.30;;;;;;5040539;28;20025;-82
2024/01/10 01:46:44;;;;;;;7.15;3.50;;;-2.60;91.40;;;;;;5041840;28;20460;-81
2024/01/10 01:49:10;;;;;;;8.65;3.75;;;-2.60;91.40;;;;;;5076269;28;20431;-81
2024/01/10 01:51:37;;;;;;;8.32;3.78;;;-2.60;91.40;;;;;;5063579;28;20070;-81
2024/01/10 01:54:08;;;;;;;6.25;3.42;;;-2.60;91.40;;;;;;5079698;28;20047;-82
2024/01/10 01:56:35;;;;;;;5.45;2.90;;;-2.60;91.40;;;;;;5076856;28;20067;-81
2024/01/10 01:59:02;;;;;;;6.15;3.00;;;-2.60;91.60;;;;;;5077784;28;20025;-81
2024/01/10 02:01:27;;;;;;;5.30;2.80;;;-2.60;91.40;;;;;;5060241;28;20036;-81
2024/01/10 02:03:54;;;;;;;11.30;3.85;;;-2.60;91.40;;;;;;5074106;28;20028;-81
2024/01/10 02:06:20;;;;;;;5.90;3.50;;;-2.60;91.30;;;;;;5057237;28;20487;-82
2024/01/10 02:08:46;;;;;;;5.07;3.13;;;-2.60;91.30;;;;;;5074357;28;20032;-82
2024/01/10 02:11:12;;;;;;;5.82;3.65;;;-2.60;91.30;;;;;;5073862;28;20028;-81
2024/01/10 02:13:38;;;;;;;6.33;3.67;;;-2.60;91.50;;;;;;5040866;28;20024;-81
2024/01/10 02:16:04;;;;;;;7.63;3.25;;;-2.60;91.20;;;;;;5062253;28;20480;-80
2024/01/10 02:18:31;;;;;;;7.07;3.60;;;-2.60;91.20;;;;;;5078260;28;20025;-81
2024/01/10 02:20:57;;;;;;;5.30;3.15;;;-2.60;91.20;;;;;;5075270;28;20036;-81
2024/01/10 02:23:26;;;;;;;6.03;3.35;;;-2.60;91.20;;;;;;5074925;28;20036;-81
2024/01/10 02:25:52;;;;;;;9.40;3.43;;;-2.60;91.10;;;;;;5074137;28;20075;-82
2024/01/10 02:28:17;;;;;;;6.30;2.92;;;-2.60;91.10;;;;;;5073865;28;20492;-82
2024/01/10 02:30:43;;;;;;;5.18;3.03;;;-2.60;91.10;;;;;;5058417;28;20025;-82
2024/01/10 02:33:09;;;;;;;5.35;3.13;;;-2.60;91.00;;;;;;5057450;28;20029;-82
2024/01/10 02:35:35;;;;;;;5.78;3.22;;;-2.60;91.00;;;;;;5073288;28;20111;-82
2024/01/10 02:38:00;;;;;;;6.30;3.28;;;-2.60;91.10;;;;;;5057511;28;20029;-82
2024/01/10 02:40:26;;;;;;;5.25;3.20;;;-2.60;91.00;;;;;;5063401;28;20033;-82
2024/01/10 02:42:51;;;;;;;6.40;3.40;;;-2.60;91.00;;;;;;5096856;28;20076;-82
2024/01/10 02:45:20;;;;;;;5.00;2.95;;;-2.60;90.80;;;;;;5061370;28;20040;-82
2024/01/10 02:47:46;;;;;;;5.27;3.07;;;-2.50;90.90;;;;;;5053108;28;20133;-81
2024/01/10 02:50:12;;;;;;;6.07;3.15;;;-2.50;90.80;;;;;;5057705;28;20029;-81
2024/01/10 02:52:37;;;;;;;4.47;2.78;;;-2.50;90.80;;;;;;5072121;28;20035;-81
2024/01/10 02:55:03;;;;;;;4.50;3.10;;;-2.50;90.80;;;;;;5071900;28;20139;-83
2024/01/10 02:57:32;;;;;;;5.97;2.90;;;-2.50;90.80;;;;;;5071591;28;20031;-82
2024/01/10 02:59:58;;;;;;;5.70;3.03;;;-2.40;90.90;;;;;;5071768;28;20020;-81
2024/01/10 03:02:24;;;;;;;7.88;2.95;;;-2.40;90.90;;;;;;5055302;28;20158;-81
2024/01/10 03:04:49;;;;;;;5.22;2.78;;;-2.40;90.90;;;;;;5071793;28;20068;-81
2024/01/10 03:07:15;;;;;;;5.37;3.20;;;-2.40;90.90;;;;;;5071829;28;20480;-81
2024/01/10 03:09:41;;;;;;;6.03;3.30;;;-2.40;90.90;;;;;;5071844;28;20052;-81
2024/01/10 03:12:07;;;;;;;5.25;2.72;;;-2.40;90.90;;;;;;5072017;28;20075;-81
2024/01/10 03:14:34;;;;;;;5.18;3.10;;;-2.40;90.90;;;;;;5071418;28;20063;-80
2024/01/10 03:17:03;;;;;;;5.55;3.03;;;-2.50;90.90;;;;;;5055409;28;20384;-81
2024/01/10 03:19:28;;;;;;;5.43;2.97;;;-2.40;90.90;;;;;;5071920;28;20025;-81
2024/01/10 03:21:54;;;;;;;8.05;3.85;;;-2.50;90.90;;;;;;5038349;28;20064;-81
2024/01/10 03:24:20;;;;;;;5.15;2.95;;;-2.50;90.90;;;;;;5071628;28;20032;-81
2024/01/10 03:26:48;;;;;;;5.93;3.30;;;-2.50;91.00;;;;;;5055272;28;20032;-81
2024/01/10 03:29:14;;;;;;;5.35;3.17;;;-2.60;91.10;;;;;;5071826;28;20029;-81
2024/01/10 03:31:39;;;;;;;8.25;3.70;;;-2.50;91.10;;;;;;5056173;28;20035;-81
2024/01/10 03:34:05;;;;;;;6.72;3.45;;;-2.50;91.10;;;;;;5042813;28;20032;-81
2024/01/10 03:36:31;;;;;;;6.70;3.28;;;-2.50;91.20;;;;;;5059329;28;20063;-80
2024/01/10 03:38:56;;;;;;;7.13;4.03;;;-2.50;91.20;;;;;;5042131;28;20496;-80
2024/01/10 03:41:22;;;;;;;6.32;3.35;;;-2.60;91.10;;;;;;5058757;28;20029;-81
2024/01/10 03:43:48;;;;;;;6.97;3.40;;;-2.60;91.20;;;;;;5042707;28;20082;-81
2024/01/10 03:46:14;;;;;;;5.78;3.38;;;-2.70;91.20;;;;;;5078087;28;20032;-80
2024/01/10 03:48:47;;;;;;;4.93;2.93;;;-2.60;91.20;;;;;;5089749;28;20044;-80
2024/01/10 03:51:13;;;;;;;5.75;3.15;;;-2.60;91.30;;;;;;5079447;28;20012;-81
2024/01/10 03:53:39;;;;;;;6.32;3.40;;;-2.60;91.30;;;;;;5080307;28;20075;-79
2024/01/10 03:56:05;;;;;;;6.10;3.45;;;-2.60;91.30;;;;;;5049367;28;20088;-80
2024/01/10 03:58:31;;;;;;;8.05;4.20;;;-2.70;91.40;;;;;;5063449;28;20029;-81
2024/01/10 04:00:56;;;;;;;6.22;3.42;;;-2.60;91.50;;;;;;5061115;28;20032;-81
2024/01/10 04:03:22;;;;;;;5.68;3.00;;;-2.70;91.40;;;;;;5042801;28;20049;-80
2024/01/10 04:05:48;;;;;;;6.00;2.97;;;-2.70;91.50;;;;;;5058855;28;20435;-81
2024/01/10 04:08:13;;;;;;;6.07;3.53;;;-2.70;91.50;;;;;;5058286;28;20036;-81
2024/01/10 04:10:39;;;;;;;7.10;3.85;;;-2.60;91.50;;;;;;5058419;28;20032;-81
2024/01/10 04:13:04;;;;;;;6.57;3.77;;;-2.70;91.50;;;;;;5058086;28;20024;-81
2024/01/10 04:15:30;;;;;;;6.77;3.57;;;-2.60;91.50;;;;;;5075488;28;20036;-81
2024/01/10 04:17:56;;;;;;;7.00;3.83;;;-2.60;91.40;;;;;;5058607;28;20055;-81
2024/01/10 04:20:21;;;;;;;9.50;4.40;;;-2.60;91.30;;;;;;5058295;28;20024;-81
2024/01/10 04:22:47;;;;;;;7.43;3.90;;;-2.70;91.20;;;;;;5074357;28;20487;-81
2024/01/10 04:25:13;;;;;;;9.13;3.88;;;-2.70;91.30;;;;;;5074810;28;20037;-82
2024/01/10 04:27:38;;;;;;;8.63;3.92;;;-2.80;91.40;;;;;;5057458;28;20028;-80
2024/01/10 04:30:05;;;;;;;7.97;3.40;;;-2.80;91.40;;;;;;5074309;28;20032;-80
2024/01/10 04:32:31;;;;;;;6.22;3.28;;;-2.80;91.40;;;;;;5057942;28;20078;-81
2024/01/10 04:34:56;;;;;;;5.95;3.30;;;-2.80;91.50;;;;;;5057996;28;20379;-81
2024/01/10 04:37:22;;;;;;;6.68;3.95;;;-2.80;91.50;;;;;;5041365;28;20541;-80
2024/01/10 04:39:48;;;;;;;6.37;3.93;;;-2.80;91.50;;;;;;5057912;28;20107;-81
2024/01/10 04:42:13;;;;;;;7.87;3.30;;;-2.80;91.40;;;;;;5074261;28;20033;-81
2024/01/10 04:44:39;;;;;;;6.37;3.50;;;-2.90;91.40;;;;;;5073747;28;20033;-80
2024/01/10 04:47:07;;;;;;;8.20;3.87;;;-2.90;91.50;;;;;;5075440;28;20106;-81
2024/01/10 04:49:33;;;;;;;6.17;3.30;;;-2.90;91.50;;;;;;5075787;28;20092;-81
2024/01/10 04:51:58;;;;;;;9.83;3.77;;;-2.90;91.40;;;;;;5057940;28;20059;-81
2024/01/10 04:54:24;;;;;;;7.95;3.97;;;-2.90;91.40;;;;;;5058007;28;20456;-82
2024/01/10 04:56:50;;;;;;;7.30;4.27;;;-2.90;91.30;;;;;;5060053;28;20028;-81
2024/01/10 04:59:15;;;;;;;8.45;3.75;;;-2.90;91.30;;;;;;5077082;28;20029;-79
2024/01/10 05:01:41;;;;;;;6.07;3.43;;;-3.00;91.30;;;;;;5052634;28;20035;-81
2024/01/10 05:04:07;;;;;;;7.60;3.80;;;-3.00;91.30;;;;;;5073699;28;20032;-80
2024/01/10 05:06:32;;;;;;;7.93;3.80;;;-3.00;91.40;;;;;;5077043;28;20029;-82
2024/01/10 05:08:58;;;;;;;6.57;3.50;;;-3.00;91.40;;;;;;5075568;28;20078;-81
2024/01/10 05:11:28;;;;;;;7.50;4.00;;;-3.10;91.50;;;;;;5074582;28;20472;-81
2024/01/10 05:13:54;;;;;;;7.63;3.60;;;-3.20;91.60;;;;;;5057611;28;20377;-82
2024/01/10 05:16:20;;;;;;;9.10;4.57;;;-3.20;91.70;;;;;;5073627;28;20032;-81
2024/01/10 05:18:46;;;;;;;6.13;3.90;;;-3.10;91.80;;;;;;5074356;28;20043;-81
2024/01/10 05:21:12;;;;;;;7.33;3.70;;;-3.10;91.90;;;;;;5073273;28;20024;-81
2024/01/10 05:23:39;;;;;;;7.17;4.03;;;-3.20;92.00;;;;;;5056806;28;20077;-81
2024/01/10 05:26:05;;;;;;;7.70;3.47;;;-3.20;92.20;;;;;;5074133;28;20484;-81
2024/01/10 05:28:31;;;;;;;6.80;4.00;;;-3.20;92.40;;;;;;5039902;28;20048;-81
2024/01/10 05:30:58;;;;;;;6.63;3.60;;;-3.30;92.80;;;;;;5073232;28;20028;-81
2024/01/10 05:33:23;;;;;;;8.60;4.30;;;-3.30;92.70;;;;;;5074340;28;20496;-81
2024/01/10 05:35:49;;;;;;;8.60;4.03;;;-3.30;92.80;;;;;;5056168;28;20036;-80
2024/01/10 05:38:15;;;;;;;9.40;4.47;;;-3.30;92.90;;;;;;5039916;28;20025;-81
2024/01/10 05:40:40;;;;;;;7.77;4.27;;;-3.30;93.00;;;;;;5056256;28;20044;-82
2024/01/10 05:43:07;;;;;;;8.10;4.30;;;-3.30;93.10;;;;;;5073447;28;20519;-82
2024/01/10 05:45:33;;;;;;;9.40;4.43;;;-3.30;93.20;;;;;;5074151;28;20119;-82
2024/01/10 05:48:01;;;;;;;6.83;4.20;;;-3.30;93.30;;;;;;5056001;28;20087;-81
2024/01/10 05:50:27;;;;;;;8.50;4.80;;;-3.30;93.30;;;;;;5072700;28;20063;-81
2024/01/10 05:52:56;;;;;;;7.70;4.27;;;-3.30;93.40;;;;;;5056028;28;20052;-82
2024/01/10 05:55:23;;;;;;;8.27;4.47;;;-3.30;93.40;;;;;;5055764;28;20427;-81
2024/01/10 05:57:49;;;;;;;7.87;4.30;;;-3.30;93.40;;;;;;5072621;28;20024;-82
2024/01/10 06:00:16;;;;;;;8.47;4.73;;;-3.30;93.50;;;;;;5056419;28;20131;-81
2024/01/10 06:02:42;;;;;;;8.33;3.93;;;-3.30;93.50;;;;;;5056341;28;20440;-81
2024/01/10 06:05:11;;;;;;;9.20;4.70;;;-3.30;93.50;;;;;;5074036;28;20037;-81
2024/01/10 06:07:43;;;;;;;9.40;4.67;;;-3.30;93.50;;;;;;5074035;28;20021;-82
2024/01/10 06:10:09;;;;;;;8.50;5.00;;;-3.30;93.50;;;;;;5073719;28;20074;-82
2024/01/10 06:12:35;;;;;;;9.00;4.33;;;-3.20;93.60;;;;;;5076676;28;20013;-82
2024/01/10 06:15:01;;;;;;;9.73;5.30;;;-3.20;93.50;;;;;;5078803;28;20084;-82
2024/01/10 06:17:26;;;;;;;8.87;4.80;;;-3.20;93.60;;;;;;5095059;28;20035;-82
2024/01/10 06:19:52;;;;;;;9.87;4.67;;;-3.30;93.60;;;;;;5058198;28;20472;-83
2024/01/10 06:22:18;;;;;;;8.43;4.33;;;-3.30;93.70;;;;;;5072235;28;20028;-84
2024/01/10 06:24:44;;;;;;;7.70;4.53;;;-3.30;93.60;;;;;;5055757;28;20037;-83
2024/01/10 06:27:09;;;;;;;7.97;4.70;;;-3.30;93.60;;;;;;5073880;28;20112;-83
2024/01/10 06:29:36;;;;;;;9.30;5.33;;;-3.30;93.50;;;;;;5073682;28;20078;-83
2024/01/10 06:32:03;;;;;;;9.03;5.13;;;-3.30;93.50;;;;;;5073817;28;20021;-82
2024/01/10 06:34:35;;;;;;;11.13;4.97;;;-3.30;93.50;;;;;;5074235;28;20028;-84
2024/01/10 06:37:01;;;;;;;8.40;4.82;;;-3.30;93.60;;;;;;5056931;28;20271;-84
2024/01/10 06:39:27;;;;;;;8.73;4.57;;;-3.30;93.50;;;;;;5073910;28;20411;-84
2024/01/10 06:41:53;;;;;;;10.60;4.80;;;-3.30;93.50;;;;;;5055395;28;20062;-83
2024/01/10 06:44:22;;;;;;;8.13;5.30;;;-3.30;93.60;;;;;;5072332;28;20107;-84
2024/01/10 06:46:47;;;;;;;9.77;4.77;;;-3.30;93.60;;;;;;5073170;28;20040;-83
2024/01/10 06:49:13;;;;;;;9.30;4.90;;;-3.20;93.70;;;;;;5038748;28;20051;-83
2024/01/10 06:51:39;;;;;;;10.30;5.37;;;-3.20;93.70;;;;;;5072189;28;20077;-83
2024/01/10 06:54:05;;;;;;;9.63;5.30;;;-3.20;93.70;;;;;;5072035;28;20029;-83
2024/01/10 06:56:34;;;;;;;8.87;5.50;;;-3.30;93.60;;;;;;5072279;28;20532;-84
2024/01/10 06:59:01;;;;;;;9.07;5.07;;;-3.30;93.60;;;;;;5056170;28;20052;-83
2024/01/10 07:01:27;;;;;;;9.80;5.00;;;-3.30;93.80;;;;;;5072585;28;20028;-83
2024/01/10 07:03:56;;;;;;;12.73;5.53;;;-3.30;93.80;;;;;;5073184;28;20016;-82
2024/01/10 07:06:22;;;;;;;9.33;5.07;;;-3.40;93.70;;;;;;5073986;28;20029;-82
2024/01/10 07:08:49;;;;;;;11.30;5.57;;;-3.30;93.70;;;;;;5043708;28;20036;-83
2024/01/10 07:11:21;;;;;;;11.73;5.63;;;-3.40;93.60;;;;;;5076833;28;20083;-82
2024/01/10 07:13:47;;;;;;;11.73;5.30;;;-3.30;93.50;;;;;;5076951;28;20020;-82
2024/01/10 07:16:15;;;;;;;11.93;6.50;;;-3.30;93.50;;;;;;5079634;28;20036;-82
2024/01/10 07:18:41;;;;;;;11.43;5.73;;;-3.40;93.30;;;;;;5087164;28;20021;-81
2024/01/10 07:21:06;;;;;;;10.40;5.73;;;-3.40;93.30;;;;;;5078989;28;20066;-82
2024/01/10 07:23:33;;;;;;;10.17;5.80;;;-3.50;93.30;;;;;;5083465;28;20028;-83
2024/01/10 07:25:59;;;;;;;12.03;6.47;;;-3.50;93.50;;;;;;5062196;28;20078;-83
2024/01/10 07:28:25;;;;;;;10.80;6.23;;;-3.40;93.30;;;;;;5059435;28;20099;-82
2024/01/10 07:30:50;;;;;;;10.80;5.60;;;-3.50;93.40;;;;;;5059658;28;20437;-82
2024/01/10 07:33:16;;;;;;;12.30;6.47;;;-3.50;93.20;;;;;;5058523;28;20115;-82
2024/01/10 07:35:41;;;;;;;12.23;6.40;;;-3.40;93.30;;;;;;5058763;28;20036;-83
2024/01/10 07:38:07;;;;;;;12.20;6.37;;;-3.40;93.30;;;;;;5059115;28;20025;-83
2024/01/10 07:40:36;;;;;;;11.77;6.33;;;-3.40;93.30;;;;;;5075212;28;20461;-83
2024/01/10 07:43:02;;;;;;;10.27;6.23;;;-3.40;93.40;;;;;;5075434;28;20023;-83
2024/01/10 07:45:31;;;;;;;12.97;6.23;;;-3.40;93.30;;;;;;5075330;28;20028;-82
2024/01/10 07:47:57;;;;;;;12.37;6.87;;;-3.40;93.30;;;;;;5074602;28;20129;-82
2024/01/10 07:50:27;;;;;;;12.57;6.40;;;-3.40;93.30;;;;;;5075918;28;20480;-82
2024/01/10 07:52:56;;;;;;;12.95;6.57;;;-3.40;93.20;;;;;;5043107;28;20070;-82
2024/01/10 07:55:22;;;;;;;11.63;6.63;;;-3.40;93.10;;;;;;5075499;28;20033;-84
2024/01/10 07:57:47;;;;;;;14.23;7.10;;;-3.50;93.00;;;;;;5058805;28;20090;-84
2024/01/10 08:00:13;;;;;;;13.60;6.50;;;-3.50;93.00;;;;;;5076117;28;20042;-84
2024/01/10 08:02:39;;;;;;;13.00;6.60;;;-3.50;92.90;;;;;;5075825;28;20025;-83
2024/01/10 08:05:08;;;;;;;12.60;7.27;;;-3.50;92.90;;;;;;5077316;28;20043;-83
2024/01/10 08:07:36;;;;;;;15.57;8.10;;;-3.60;92.90;;;;;;5078128;28;20103;-83
2024/01/10 08:10:09;;;;;;;12.47;6.97;;;-3.60;93.00;;;;;;5079661;28;20116;-82
2024/01/10 08:12:35;;;;;;;12.57;6.40;;;-3.60;93.00;;;;;;5073176;28;20388;-81
2024/01/10 08:15:01;;;;;;;16.10;7.23;;;-3.60;93.00;;;;;;5063240;28;20008;-82
2024/01/10 08:17:27;;;;;;;14.40;8.13;;;-3.50;93.00;;;;;;5076181;28;20059;-83
2024/01/10 08:19:56;;;;;;;12.77;6.20;;;-3.50;93.00;;;;;;5049189;28;20048;-83
2024/01/10 08:22:22;;;;;;;15.80;7.33;;;-3.50;93.00;;;;;;5068335;28;20086;-83
2024/01/10 08:24:48;;;;;;;15.43;8.03;;;-3.50;92.90;;;;;;5076732;28;20032;-83
2024/01/10 08:27:14;;;;;;;15.60;8.27;;;-3.50;92.90;;;;;;5076660;28;20029;-82
2024/01/10 08:29:39;;;;;;;17.23;8.10;;;-3.50;92.80;;;;;;5096256;28;20080;-82
2024/01/10 08:32:05;;;;;;;14.80;7.50;;;-3.50;93.00;;;;;;5064761;28;20024;-82
2024/01/10 08:34:31;;;;;;;14.33;7.60;;;-3.50;92.80;;;;;;5097075;28;20021;-81
2024/01/10 08:36:57;;;;;;;14.97;7.57;;;-3.40;92.80;;;;;;5043595;28;20432;-81
2024/01/10 08:39:25;;;;;;;16.43;7.87;;;-3.40;92.70;;;;;;5074594;28;20139;-87
2024/01/10 08:41:52;;;;;;;16.00;8.23;;;-3.40;92.70;;;;;;5042054;28;20361;-81
2024/01/10 08:44:18;;;;;;;14.00;7.53;;;-3.40;92.70;;;;;;5075616;28;20048;-84
2024/01/10 08:46:44;;;;;;;13.93;7.90;;;-3.40;92.70;;;;;;5074134;28;20033;-82
2024/01/10 08:49:10;;;;;;;13.17;7.70;;;-3.40;92.60;;;;;;5057418;28;20048;-82
2024/01/10 08:51:36;;;;;;;17.03;8.37;;;-3.30;92.70;;;;;;5057211;28;20029;-82
2024/01/10 08:54:01;;;;;;;13.87;7.33;;;-3.30;92.60;;;;;;5057386;28;20029;-82
2024/01/10 08:56:27;;;;;;;14.63;7.90;;;-3.30;92.70;;;;;;5073927;28;20123;-83
2024/01/10 08:58:56;;;;;;;16.70;8.70;;;-3.30;92.60;;;;;;5073329;28;20060;-81
2024/01/10 09:01:24;;;;;;;16.07;8.03;;;-3.20;92.60;;;;;;5073541;28;20029;-82
2024/01/10 09:03:50;;;;;;;18.13;8.40;;;-3.10;92.60;;;;;;5056664;28;20028;-83
2024/01/10 09:06:16;;;;;;;15.40;8.37;;;-3.10;92.50;;;;;;5056972;28;20124;-83
2024/01/10 09:08:43;;;;;;;14.70;8.83;;;-3.00;92.50;;;;;;5073514;28;20031;-83
2024/01/10 09:11:09;;;;;;;16.20;8.60;;;-3.00;92.30;;;;;;5057105;28;20075;-83
2024/01/10 09:13:34;;;;;;;16.87;8.47;;;-3.00;92.30;;;;;;5056768;28;20033;-83
2024/01/10 09:16:00;;;;;;;15.27;8.30;;;-2.90;92.40;;;;;;5073399;28;20540;-83
2024/01/10 09:18:26;;;;;;;16.23;9.20;;;-2.90;92.50;;;;;;5056225;28;20036;-82
2024/01/10 09:20:51;;;;;;;16.77;9.00;;;-2.90;92.50;;;;;;5074541;28;20393;-82
2024/01/10 09:23:18;;;;;;;15.93;9.00;;;-2.80;92.40;;;;;;5056596;28;20043;-82
2024/01/10 09:25:44;;;;;;;14.83;8.13;;;-2.80;92.40;;;;;;5056940;28;20089;-83
2024/01/10 09:28:10;;;;;;;16.80;8.43;;;-2.70;92.30;;;;;;5073028;28;20036;-82
2024/01/10 09:30:35;;;;;;;15.67;8.50;;;-2.70;92.30;;;;;;5057247;28;20380;-82
2024/01/10 09:33:01;;;;;;;15.95;8.55;;;-2.60;92.40;;;;;;5057050;28;20106;-82
2024/01/10 09:35:27;;;;;;;13.85;7.22;;;-2.60;92.30;;;;;;5057960;28;20028;-81
2024/01/10 09:37:56;;;;;;;14.33;7.90;;;-2.50;92.30;;;;;;5071809;28;20096;-82
2024/01/10 09:40:22;;;;;;;15.73;9.20;;;-2.40;92.20;;;;;;5080140;28;20048;-79
2024/01/10 09:42:51;;;;;;;15.50;8.85;;;-2.40;92.10;;;;;;5079726;28;20021;-81
2024/01/10 09:45:18;;;;;;;16.13;8.70;;;-2.40;92.00;;;;;;5078829;28;20036;-82
2024/01/10 09:47:49;;;;;;;16.55;8.68;;;-2.30;91.90;;;;;;5073136;28;20285;-82
2024/01/10 09:50:15;;;;;;;15.05;8.63;;;-2.30;91.70;;;;;;5073029;28;20051;-83
2024/01/10 09:52:48;;;;;;;15.02;8.80;;;-2.20;91.30;;;;;;5056418;28;20079;-82
2024/01/10 09:55:16;;;;;;;15.65;7.90;;;-2.10;91.30;;;;;;5072519;28;20043;-83
2024/01/10 09:57:42;;;;;;;15.80;8.80;;;-2.10;91.20;;;;;;5072663;28;20024;-83
2024/01/10 10:00:11;;;;;;;15.05;8.23;;;-2.00;91.00;;;;;;5056007;28;20047;-84
2024/01/10 10:02:39;;;;;;;13.82;7.93;;;-2.00;90.80;;;;;;5072454;28;20060;-83
2024/01/10 10:05:23;;;;;;;16.75;9.05;;;-2.00;90.70;;;;;;5072293;28;20067;-84
2024/01/10 10:07:53;;;;;;;14.43;8.48;;;-1.90;90.50;;;;;;5072523;28;20033;-84
2024/01/10 10:10:18;;;;;;;15.55;8.25;;;-1.90;90.40;;;;;;5072354;28;20024;-83
2024/01/10 10:12:45;;;;;;;17.58;9.27;;;-1.90;89.90;;;;;;5072479;28;20094;-83
2024/01/10 10:15:13;;;;;;;15.23;8.68;;;-1.90;90.00;;;;;;5072554;28;20024;-83
2024/01/10 10:17:45;;;;;;;16.45;9.25;;;-1.80;90.00;;;;;;5072183;28;20372;-82
2024/01/10 10:20:19;;;;;;;16.02;8.40;;;-1.80;90.00;;;;;;5056198;28;20054;-83
2024/01/10 10:23:15;;;;;;;18.10;9.77;;;-1.70;89.90;;;;;;5072301;28;20062;-84
2024/01/10 10:25:45;;;;;;;15.38;8.75;;;-1.70;89.90;;;;;;5054108;28;20049;-83
2024/01/10 10:28:11;;;;;;;14.50;8.27;;;-1.70;89.70;;;;;;5072229;28;20028;-83
2024/01/10 10:30:36;;;;;;;14.80;8.95;;;-1.60;89.80;;;;;;5055611;28;20106;-84
2024/01/10 10:33:04;;;;;;;17.50;8.95;;;-1.50;89.80;;;;;;5072460;28;20024;-83
2024/01/10 10:35:30;;;;;;;18.55;9.15;;;-1.50;89.30;;;;;;5072189;28;20166;-83
2024/01/10 10:38:01;;;;;;;14.15;8.07;;;-1.50;89.20;;;;;;5072152;28;20052;-84
2024/01/10 10:40:26;;;;;;;18.52;8.95;;;-1.40;89.40;;;;;;5072473;28;20040;-83
2024/01/10 10:42:56;;;;;;;15.30;9.02;;;-1.40;89.20;;;;;;5072061;28;20028;-83
2024/01/10 10:45:26;;;;;;;14.80;8.88;;;-1.30;89.00;;;;;;5073062;28;20033;-83
2024/01/10 10:48:01;;;;;;;16.63;9.02;;;-1.30;89.20;;;;;;5085275;28;20029;-82
2024/01/10 10:50:35;;;;;;;15.80;8.48;;;-1.20;88.50;;;;;;5096098;28;20028;-82
2024/01/10 10:53:06;;;;;;;16.80;9.02;;;-1.10;88.30;;;;;;5078806;28;20032;-83
2024/01/10 10:55:37;;;;;;;15.93;8.65;;;-1.10;87.90;;;;;;5082051;28;20050;-83
2024/01/10 10:58:05;;;;;;;16.60;8.85;;;-1.10;88.10;;;;;;5072514;28;20368;-83
2024/01/10 11:00:32;;;;;;;16.25;9.05;;;-1.00;88.20;;;;;;5072042;28;20103;-83
2024/01/10 11:03:01;;;;;;;17.45;9.25;;;-0.90;88.40;;;;;;5072199;28;20035;-83
2024/01/10 11:05:29;;;;;;;14.98;8.88;;;-0.90;87.60;;;;;;5039819;28;20037;-83
2024/01/10 11:07:56;;;;;;;17.45;9.20;;;-0.90;87.10;;;;;;5039280;28;20191;-83
2024/01/10 11:10:28;;;;;;;14.57;8.63;;;-0.80;87.40;;;;;;5055781;28;20116;-83
2024/01/10 11:12:59;;;;;;;;;;;-0.80;87.60;;;;;;5072621;28;20116;-84
2024/01/10 11:15:43;;;;;;;;;;;-0.70;86.90;;;;;;5072206;28;19908;-83
2024/01/10 11:18:46;;;;;;;20.10;9.00;;;-0.70;86.40;;;;;;5071623;28;19955;-83
2024/01/10 11:21:24;;;;;;;21.25;8.40;;;-0.70;85.80;;;;;;5071745;28;20028;-83
2024/01/10 11:23:54;;;;;;;14.45;8.20;;;-0.70;86.30;;;;;;5071848;28;20028;-83
2024/01/10 11:26:40;;;;;;;14.88;8.65;;;-0.60;86.60;;;;;;5072837;28;20032;-84
2024/01/10 11:29:08;;;;;;;17.48;8.65;;;-0.50;86.60;;;;;;5072228;28;20046;-84
2024/01/10 11:31:34;;;;;;;18.63;9.50;;;-0.50;86.80;;;;;;5054813;28;20124;-85
2024/01/10 11:34:06;;;;;;;17.00;8.75;;;-0.40;86.20;;;;;;5072751;28;20056;-83
2024/01/10 11:36:32;;;;;;;17.42;9.68;;;-0.30;86.00;;;;;;5054893;28;20426;-84
2024/01/10 11:39:05;;;;;;;15.40;8.65;;;-0.30;86.20;;;;;;5071576;28;20025;-84
2024/01/10 11:41:35;;;;;;;16.75;9.27;;;-0.20;86.30;;;;;;5071599;28;20529;-84
2024/01/10 11:44:18;;;;;;;17.52;9.35;;;-0.20;86.10;;;;;;5071234;28;20036;-82
2024/01/10 11:46:47;;;;;;;16.92;9.25;;;-0.10;85.60;;;;;;5071226;28;20037;-83
2024/01/10 11:49:18;;;;;;;17.52;9.07;;;-0.10;85.20;;;;;;5071012;28;20401;-83
2024/01/10 11:52:05;;;;;;;15.60;8.55;;;-0.10;84.40;;;;;;5071311;28;20038;-83
2024/01/10 11:54:42;;;;;;;16.00;8.68;;;-0.10;84.60;;;;;;5057854;28;20384;-82
2024/01/10 11:57:31;;;;;;;15.07;8.63;;;0.00;83.80;;;;;;5077414;28;20099;-83
2024/01/10 12:00:00;;;;;;;17.08;9.30;;;-0.10;83.30;;;;;;5082427;28;20071;-83
2024/01/10 12:02:26;;;;;;;15.80;9.23;;;0.00;83.20;;;;;;5081256;28;20009;-82
2024/01/10 12:04:55;;;;;;;16.95;9.20;;;0.00;82.90;;;;;;5097597;28;20077;-83
2024/01/10 12:07:21;;;;;;;14.00;8.30;;;0.00;82.50;;;;;;5065158;28;20032;-83
2024/01/10 12:09:47;;;;;;;15.02;8.60;;;0.00;82.50;;;;;;5075134;28;20035;-83
2024/01/10 12:12:14;;;;;;;13.98;8.75;;;0.10;82.40;;;;;;5058451;28;20033;-83
2024/01/10 12:14:40;;;;;;;16.27;8.93;;;0.10;82.60;;;;;;5074463;28;20535;-83
2024/01/10 12:17:08;;;;;;;17.60;10.02;;;0.10;83.20;;;;;;5074689;28;20468;-84
2024/01/10 12:19:35;;;;;;;15.00;8.73;;;0.20;82.60;;;;;;5058022;28;20081;-83
2024/01/10 12:22:01;;;;;;;14.75;8.50;;;0.30;82.30;;;;;;5074703;28;20025;-83
2024/01/10 12:24:30;;;;;;;13.75;8.70;;;0.30;81.90;;;;;;5075505;28;20028;-82
2024/01/10 12:26:56;;;;;;;14.43;8.88;;;0.30;82.20;;;;;;5074143;28;20024;-83
2024/01/10 12:29:25;;;;;;;14.98;8.55;;;0.40;81.70;;;;;;5076203;28;20322;-83
2024/01/10 12:31:51;;;;;;;15.13;8.52;;;0.40;81.40;;;;;;5074274;28;20032;-82
2024/01/10 12:34:17;;;;;;;14.38;8.93;;;0.50;82.00;;;;;;5074396;28;20032;-82
2024/01/10 12:36:44;;;;;;;18.38;9.43;;;0.50;81.80;;;;;;5073957;28;20039;-83
2024/01/10 12:39:11;;;;;;;14.80;8.30;;;0.50;81.50;;;;;;5074595;28;20423;-83
2024/01/10 12:41:37;;;;;;;16.52;9.18;;;0.60;81.60;;;;;;5057640;28;20070;-83
2024/01/10 12:44:04;;;;;;;14.90;8.15;;;0.60;80.50;;;;;;5057472;28;20029;-82